Flight Track Log - Related Links

Times and Time Zones

All times are in EDT time to prevent confusion due to time zone crossing. See the SWA706 flight status page for this flight to view local times or setup timezone preferences in your user account.


Time Position Orientation Groundspeed Altitude Reporting Facility
EDT Latitude Longitude Course Direction KTS MPH feet Rate Location/Type
Sat 06:16:37 AM 42.7319 -73.8081 183° South 147 169 1,400  Level Boston Center
Sat 06:17:20 AM 42.7028 -73.8103 183° South 152 175 3,000 2,902 Climbing Boston Center
Sat 06:18:39 AM 42.7458 -73.8678 316° Northwest 193 222 7,300 3,237 Climbing Boston Center
Sat 06:19:39 AM 42.8014 -73.9200 325° Northwest 211 243 10,500 2,850 Climbing Boston Center
Sat 06:20:39 AM 42.8042 -74.0192 272° West 224 258 13,000 2,500 Climbing Boston Center
Sat 06:21:39 AM 42.7492 -74.0800 219° Southwest 229 264 15,500 3,200 Climbing Boston Center
Sat 06:22:39 AM 42.6442 -74.1364 202° Southwest 312 359 19,400 3,550 Climbing Boston Center
Sat 06:23:39 AM 42.5492 -74.0803 156° South 300 345 22,600 3,150 Climbing Boston Center
Sat 06:24:39 AM 42.4500 -74.0158 154° Southeast 343 395 25,700 2,700 Climbing Boston Center
Sat 06:25:39 AM 42.3486 -73.9542 156° South 379 436 28,000 1,150 Climbing Boston Center
Sat 06:26:39 AM 42.2514 -73.8958 156° South 390 449 28,000  Level Boston Center
Sat 06:27:39 AM 42.1522 -73.8375 156° South 390 449 28,000  Level Boston Center
Sat 06:28:39 AM 42.0528 -73.7794 157° South 396 456 28,000  Level Boston Center
Sat 06:29:39 AM 41.9422 -73.7797 180° South 388 447 28,000  Level Boston Center
Sat 06:31:41 AM 41.7042 -73.7803 180° South 431 496 28,000  Level New York Center
Sat 06:32:40 AM 41.5897 -73.7833 181° South 431 496 28,000  Level New York Center
Sat 06:33:41 AM 41.4767 -73.8031 187° South 421 484 28,000  Level New York Center
Sat 06:34:42 AM 41.3831 -73.8844 213° Southwest 398 458 28,000  Level New York Center
Sat 06:35:40 AM 41.2850 -73.9683 213° Southwest 406 467 28,000  Level New York Center
Sat 06:36:42 AM 41.1911 -74.0494 213° Southwest 411 473 28,000  Level New York Center
Sat 06:37:41 AM 41.0992 -74.1331 214° Southwest 411 473 28,000  Level New York Center
Sat 06:38:42 AM 41.0117 -74.2056 212° Southwest 411 473 28,000 -202 Level New York Center
Sat 06:39:40 AM 40.9175 -74.2886 214° Southwest 411 473 27,600 -756 Descending New York Center
Sat 06:40:41 AM 40.8233 -74.3717 214° Southwest 416 479 26,500 -787 Descending New York Center
Sat 06:41:42 AM 40.7433 -74.4714 223° Southwest 406 467 26,000 -246 Descending New York Center
Sat 06:42:43 AM 40.6792 -74.5856 233° Southwest 400 460 26,000 -50 Level New York Center
Sat 06:43:41 AM 40.6108 -74.6967 231° Southwest 400 460 25,900 -555 Descending New York Center
Sat 06:44:42 AM 40.5628 -74.8222 243° Southwest 394 453 24,900 -1,160 Descending New York Center
Sat 06:45:40 AM 40.5000 -74.9522 238° Southwest 389 448 23,600 -1,160 Descending New York Center
Sat 06:46:41 AM 40.4378 -75.0603 233° Southwest 389 448 22,600 -992 Descending New York Center
Sat 06:47:41 AM 40.3575 -75.1481 220° Southwest 384 442 21,600 -1,000 Descending New York Center
Sat 06:48:41 AM 40.2772 -75.2300 218° Southwest 378 435 20,600 -992 Descending New York Center
Sat 06:49:42 AM 40.1950 -75.3144 218° Southwest 378 435 19,600 -807 Descending New York Center
Sat 06:50:40 AM 40.1231 -75.3911 219° Southwest 378 435 19,000 -300 Descending New York Center
Sat 06:51:42 AM 40.0522 -75.4947 228° Southwest 366 421 19,000  Level New York Center
Sat 06:52:41 AM 39.9964 -75.5886 232° Southwest 366 421 19,000 -504 Level New York Center
Sat 06:53:41 AM 39.9311 -75.7033 233° Southwest 366 421 18,000 -992 Descending New York Center
Sat 06:54:42 AM 39.8772 -75.7942 232° Southwest 366 421 17,000 -1,530 Descending New York Center
Sat 06:57:01 AM 39.7333 -76.0333 232° Southwest 327 376 12,900 -1,560 Descending Potomac TRACON
Sat 06:58:02 AM 39.6667 -76.1000 218° Southwest 302 348 11,800 -1,091 Descending Potomac TRACON
Sat 06:59:02 AM 39.6167 -76.1667 226° Southwest 275 316 10,700 -1,053 Descending Potomac TRACON
Sat 06:59:56 AM 39.5667 -76.2167 218° Southwest 251 289 9,800 -991 Descending Potomac TRACON
Sat 07:00:57 AM 39.5167 -76.2833 226° Southwest 242 278 8,800 -991 Descending Potomac TRACON
Sat 07:01:51 AM 39.4667 -76.3333 218° Southwest 242 278 7,900 -1,000 Descending Potomac TRACON
Sat 07:02:51 AM 39.4167 -76.3833 218° Southwest 245 282 6,900 -1,300 Descending Potomac TRACON
Sat 07:03:51 AM 39.3500 -76.4000 191° South 250 288 5,300 -1,474 Descending Potomac TRACON
Sat 07:04:45 AM 39.2833 -76.4167 191° South 247 284 4,100 -1,000 Descending Potomac TRACON
Sat 07:05:39 AM 39.2333 -76.4500 207° Southwest 216 249 3,500 -737 Descending Potomac TRACON
Sat 07:06:39 AM 39.2000 -76.5000 229° Southwest 189 217 2,700 -737 Descending Potomac TRACON
Sat 07:07:33 AM 39.1667 -76.5333 218° Southwest 159 183 2,100 -368 Descending Potomac TRACON
Sat 07:08:33 AM 39.1333 -76.5833 229° Southwest 153 176 2,000 -400 Descending Potomac TRACON
Sat 07:09:33 AM 39.1167 -76.6167 237° Southwest 143 165 1,300 -750 Descending Potomac TRACON
Sat 07:10:33 AM 39.1500 -76.6500 322° Northwest 147 169 500 -800 Descending Potomac TRACON
Sat 07:12:00 AM 39.1667 -76.6667 270° West  Level FlightAware Approximate
Sat 07:19:00 AM 39.1754 -76.6683 270° West  Level Estimated
Sat 07:20:00 AM 39.1754 -76.6683 270° West  Level Estimated
Sat 07:21:00 AM 39.1754 -76.6683 270° West  Level Estimated

Login

Don't have an account? Register now (free) for customized features, flight alerts, and more!